createdAt,value
2019-05-30T00:01:48.435Z,12.10
2019-05-30T00:04:14.647Z,12.10
2019-05-30T00:06:40.876Z,12.10
2019-05-30T00:09:07.818Z,12.00
2019-05-30T00:11:34.116Z,12.00
2019-05-30T00:14:00.731Z,12.00
2019-05-30T00:16:27.091Z,11.90
2019-05-30T00:18:54.933Z,12.00
2019-05-30T00:21:25.664Z,11.90
2019-05-30T00:24:02.066Z,11.90
2019-05-30T00:26:34.913Z,11.90
2019-05-30T00:29:02.567Z,11.90
2019-05-30T00:31:28.950Z,11.90
2019-05-30T00:33:55.510Z,11.90
2019-05-30T00:36:22.159Z,11.90
2019-05-30T00:38:48.400Z,11.80
2019-05-30T00:41:14.624Z,11.90
2019-05-30T00:43:40.875Z,11.80
2019-05-30T00:46:07.535Z,11.80
2019-05-30T00:48:33.813Z,11.80
2019-05-30T00:51:00.476Z,11.80
2019-05-30T00:53:26.770Z,11.80
2019-05-30T00:55:52.987Z,11.80
2019-05-30T00:58:19.248Z,11.80
2019-05-30T01:00:45.486Z,11.70
2019-05-30T01:03:11.848Z,11.70
2019-05-30T01:05:38.112Z,11.70
2019-05-30T01:08:05.180Z,11.60
2019-05-30T01:10:31.577Z,11.60
2019-05-30T01:13:01.273Z,11.60
2019-05-30T01:15:27.985Z,11.50
2019-05-30T01:17:54.222Z,11.40
2019-05-30T01:20:23.797Z,11.40
2019-05-30T01:22:50.632Z,11.40
2019-05-30T01:25:16.882Z,11.30
2019-05-30T01:27:43.140Z,11.30
2019-05-30T01:30:10.385Z,11.20
2019-05-30T01:32:36.643Z,11.20
2019-05-30T01:35:11.853Z,11.10
2019-05-30T01:37:41.785Z,11.10
2019-05-30T01:40:09.881Z,11.00
2019-05-30T01:42:38.169Z,11.00
2019-05-30T01:45:08.472Z,10.90
2019-05-30T01:47:35.462Z,10.90
2019-05-30T01:50:06.517Z,10.80
2019-05-30T01:52:32.771Z,10.80
2019-05-30T01:55:00.398Z,10.70
2019-05-30T01:57:26.688Z,10.70
2019-05-30T01:59:52.931Z,10.70
2019-05-30T02:02:19.155Z,10.60
2019-05-30T02:04:45.410Z,10.60
2019-05-30T02:07:11.741Z,10.50
2019-05-30T02:09:38.011Z,10.50
2019-05-30T02:12:05.555Z,10.50
2019-05-30T02:14:31.887Z,10.40
2019-05-30T02:16:59.519Z,10.40
2019-05-30T02:19:25.907Z,10.30
2019-05-30T02:21:52.156Z,10.30
2019-05-30T02:24:18.414Z,10.30
2019-05-30T02:26:44.691Z,10.20
2019-05-30T02:29:10.933Z,10.20
2019-05-30T02:31:39.565Z,10.10
2019-05-30T02:34:07.365Z,10.10
2019-05-30T02:36:33.462Z,10.10
2019-05-30T02:39:00.764Z,10.10
2019-05-30T02:41:27.138Z,10.00
2019-05-30T02:43:53.389Z,10.00
2019-05-30T02:46:19.673Z,10.00
2019-05-30T02:48:58.025Z,10.00
2019-05-30T02:51:14.029Z,10.00
2019-05-30T02:53:40.278Z,10.00
2019-05-30T02:56:07.887Z,9.90
2019-05-30T02:58:34.624Z,9.90
2019-05-30T03:01:01.930Z,9.90
2019-05-30T03:03:29.025Z,9.90
2019-05-30T03:05:55.479Z,9.80
2019-05-30T03:08:21.914Z,9.80
2019-05-30T03:10:48.457Z,9.80
2019-05-30T03:13:14.915Z,9.70
2019-05-30T03:15:41.252Z,9.70
2019-05-30T03:18:12.815Z,9.70
2019-05-30T03:20:42.978Z,9.70
2019-05-30T03:23:10.450Z,9.70
2019-05-30T03:25:44.093Z,9.60
2019-05-30T03:28:15.125Z,9.70
2019-05-30T03:30:44.382Z,9.70
2019-05-30T03:33:32.891Z,9.60
2019-05-30T03:35:42.448Z,9.60
2019-05-30T03:38:08.676Z,9.60
2019-05-30T03:40:35.612Z,9.60
2019-05-30T03:43:04.120Z,9.60
2019-05-30T03:45:33.840Z,9.50
2019-05-30T03:48:06.561Z,9.70
2019-05-30T03:50:37.766Z,9.70
2019-05-30T03:53:07.364Z,9.70
2019-05-30T03:55:38.681Z,9.70
2019-05-30T03:58:14.362Z,9.80
2019-05-30T04:00:53.830Z,9.80
2019-05-30T04:03:50.716Z,9.90
2019-05-30T04:06:28.745Z,9.90
2019-05-30T04:09:00.680Z,10.00
2019-05-30T04:12:10.658Z,10.10
2019-05-30T04:14:41.650Z,10.10
2019-05-30T04:17:48.795Z,10.10
2019-05-30T04:20:26.466Z,10.20
2019-05-30T04:23:10.827Z,10.30
2019-05-30T04:25:44.136Z,10.30
2019-05-30T04:28:24.302Z,10.30
2019-05-30T04:30:59.137Z,10.40
2019-05-30T04:33:32.625Z,10.50
2019-05-30T04:35:53.558Z,10.50
2019-05-30T04:38:24.846Z,10.60
2019-05-30T04:40:51.504Z,10.70
2019-05-30T04:43:25.783Z,10.70
2019-05-30T04:45:52.296Z,10.90
2019-05-30T04:48:19.230Z,11.00
2019-05-30T04:50:48.840Z,11.20
2019-05-30T04:53:16.892Z,11.30
2019-05-30T04:55:45.758Z,11.30
2019-05-30T04:58:13.429Z,11.40
2019-05-30T05:00:40.627Z,11.50
2019-05-30T05:03:08.149Z,11.70
2019-05-30T05:05:34.831Z,11.80
2019-05-30T05:08:01.070Z,12.00
2019-05-30T05:10:27.318Z,12.10
2019-05-30T05:12:53.580Z,12.30
2019-05-30T05:15:20.713Z,12.40
2019-05-30T05:17:47.186Z,12.70
2019-05-30T05:20:15.246Z,13.00
2019-05-30T05:22:41.660Z,13.20
2019-05-30T05:25:08.808Z,13.60
2019-05-30T05:27:35.050Z,14.00
2019-05-30T05:30:03.090Z,14.70
2019-05-30T05:32:29.319Z,15.10
2019-05-30T05:34:55.631Z,15.80
2019-05-30T05:37:27.424Z,16.50
2019-05-30T05:39:53.698Z,17.30
2019-05-30T05:42:20.291Z,18.20
2019-05-30T05:44:46.576Z,19.10
2019-05-30T05:47:12.801Z,20.00
2019-05-30T05:49:39.069Z,20.70
2019-05-30T05:52:05.731Z,21.20
2019-05-30T05:54:32.061Z,21.40
2019-05-30T05:56:58.348Z,21.80
2019-05-30T05:59:25.242Z,22.20
2019-05-30T06:01:57.393Z,22.50
2019-05-30T06:04:23.627Z,22.80
2019-05-30T06:06:49.842Z,23.20
2019-05-30T06:09:16.472Z,23.50
2019-05-30T06:11:49.140Z,23.80
2019-05-30T06:14:15.673Z,24.00
2019-05-30T06:16:41.937Z,24.30
2019-05-30T06:19:15.565Z,24.50
2019-05-30T06:21:53.541Z,24.70
2019-05-30T06:24:17.712Z,24.90
2019-05-30T06:26:46.421Z,25.00
2019-05-30T06:29:20.107Z,25.00
2019-05-30T06:31:47.165Z,25.10
2019-05-30T06:34:28.363Z,25.10
2019-05-30T06:36:41.562Z,24.90
2019-05-30T06:39:08.120Z,24.60
2019-05-30T06:41:34.659Z,24.30
2019-05-30T06:44:05.453Z,24.10
2019-05-30T06:46:30.559Z,24.10
2019-05-30T06:48:57.720Z,24.30
2019-05-30T06:51:24.849Z,24.40
2019-05-30T06:53:51.117Z,24.60
2019-05-30T06:56:25.591Z,24.80
2019-05-30T06:58:52.458Z,25.20
2019-05-30T07:01:18.721Z,25.40
2019-05-30T07:03:48.002Z,25.70
2019-05-30T07:06:14.872Z,26.00
2019-05-30T07:08:41.388Z,26.20
2019-05-30T07:11:07.630Z,26.30
2019-05-30T07:13:34.167Z,26.20
2019-05-30T07:16:06.545Z,26.30
2019-05-30T07:18:36.768Z,26.20
2019-05-30T07:21:03.433Z,25.50
2019-05-30T07:23:30.264Z,24.80
2019-05-30T07:25:56.528Z,24.20
2019-05-30T07:28:23.821Z,23.40
2019-05-30T07:30:50.312Z,22.80
2019-05-30T07:33:16.577Z,22.20
2019-05-30T07:35:42.826Z,21.60
2019-05-30T07:38:09.061Z,21.00
2019-05-30T07:40:35.334Z,20.40
2019-05-30T07:43:01.559Z,20.10
2019-05-30T07:45:28.987Z,20.20
2019-05-30T07:47:55.426Z,20.10
2019-05-30T07:50:22.936Z,20.10
2019-05-30T07:52:50.736Z,20.10
2019-05-30T07:55:17.540Z,20.60
2019-05-30T07:57:45.014Z,21.00
2019-05-30T08:00:14.552Z,21.20
2019-05-30T08:02:44.253Z,21.20
2019-05-30T08:05:23.598Z,21.10
2019-05-30T08:07:40.066Z,21.00
2019-05-30T08:10:09.050Z,20.70
2019-05-30T08:12:36.222Z,20.40
2019-05-30T08:15:06.229Z,20.10
2019-05-30T08:17:33.650Z,19.80
2019-05-30T08:20:00.199Z,19.50
2019-05-30T08:22:27.887Z,19.20
2019-05-30T08:24:54.774Z,19.10
2019-05-30T08:27:21.134Z,19.10
2019-05-30T08:29:47.599Z,18.90
2019-05-30T08:32:14.017Z,18.70
2019-05-30T08:34:41.219Z,18.40
2019-05-30T08:37:07.682Z,18.30
2019-05-30T08:39:35.151Z,18.00
2019-05-30T08:42:01.622Z,17.90
2019-05-30T08:44:29.403Z,17.70
2019-05-30T08:46:55.804Z,17.60
2019-05-30T08:49:22.043Z,17.50
2019-05-30T08:51:48.327Z,17.50
2019-05-30T08:54:21.183Z,17.50
2019-05-30T08:56:50.037Z,17.40
2019-05-30T08:59:16.627Z,17.40
2019-05-30T09:01:43.884Z,17.40
2019-05-30T09:04:11.347Z,17.60
2019-05-30T09:06:37.894Z,18.30
2019-05-30T09:09:06.068Z,19.00
2019-05-30T09:11:32.320Z,19.80
2019-05-30T09:13:58.690Z,20.30
2019-05-30T09:16:25.103Z,20.40
2019-05-30T09:18:54.249Z,20.30
2019-05-30T09:21:24.365Z,20.20
2019-05-30T09:23:57.556Z,20.10
2019-05-30T09:26:21.530Z,20.00
2019-05-30T09:28:48.279Z,19.80
2019-05-30T09:31:14.707Z,19.70
2019-05-30T09:33:41.499Z,19.90
2019-05-30T09:36:13.147Z,20.30
2019-05-30T09:38:37.626Z,20.90
2019-05-30T09:41:03.939Z,21.40
2019-05-30T09:43:30.266Z,21.90
2019-05-30T09:45:56.939Z,22.30
2019-05-30T09:48:28.229Z,22.80
2019-05-30T09:50:54.498Z,23.30
2019-05-30T09:53:20.989Z,23.30
2019-05-30T09:55:48.330Z,23.10
2019-05-30T09:58:14.892Z,22.70
2019-05-30T10:00:42.924Z,22.40
2019-05-30T10:03:09.473Z,21.90
2019-05-30T10:05:38.098Z,21.50
2019-05-30T10:08:05.345Z,21.00
2019-05-30T10:10:31.629Z,20.70
2019-05-30T10:12:57.872Z,20.40
2019-05-30T10:15:28.686Z,20.10
2019-05-30T10:17:55.025Z,19.90
2019-05-30T10:20:22.281Z,19.70
2019-05-30T10:22:57.358Z,19.60
2019-05-30T10:25:30.303Z,19.50
2019-05-30T10:27:57.759Z,19.50
2019-05-30T10:30:25.622Z,19.60
2019-05-30T10:32:56.317Z,19.80
2019-05-30T10:35:29.642Z,19.90
2019-05-30T10:37:57.266Z,20.00
2019-05-30T10:40:24.418Z,20.20
2019-05-30T10:42:51.228Z,20.50
2019-05-30T10:45:30.038Z,20.80
2019-05-30T10:48:06.731Z,21.20
2019-05-30T10:50:34.235Z,21.30
2019-05-30T10:53:00.751Z,21.20
2019-05-30T10:55:27.320Z,21.20
2019-05-30T10:57:58.105Z,21.10
2019-05-30T11:01:03.544Z,21.00
2019-05-30T11:03:29.915Z,21.00
2019-05-30T11:06:20.755Z,21.10
2019-05-30T11:08:50.637Z,21.10
2019-05-30T11:11:16.998Z,21.10
2019-05-30T11:13:43.252Z,21.10
2019-05-30T11:16:09.524Z,21.10
2019-05-30T11:18:35.880Z,21.00
2019-05-30T11:21:02.267Z,20.80
2019-05-30T11:23:28.506Z,20.60
2019-05-30T11:25:54.807Z,20.50
2019-05-30T11:28:20.990Z,20.50
2019-05-30T11:30:48.547Z,20.40
2019-05-30T11:33:14.933Z,20.30
2019-05-30T11:35:41.179Z,20.10
2019-05-30T11:38:08.494Z,20.00
2019-05-30T11:40:34.776Z,19.80
2019-05-30T11:43:01.536Z,19.80
2019-05-30T11:45:28.172Z,19.60
2019-05-30T11:47:55.668Z,19.50
2019-05-30T11:50:23.665Z,19.40
2019-05-30T11:52:51.693Z,19.40
2019-05-30T11:55:18.428Z,19.30
2019-05-30T11:57:44.857Z,19.30
2019-05-30T12:00:13.259Z,19.20
2019-05-30T12:02:39.495Z,19.20
2019-05-30T12:05:06.933Z,19.30
2019-05-30T12:07:36.791Z,19.30
2019-05-30T12:10:05.148Z,19.40
2019-05-30T12:12:31.414Z,19.40
2019-05-30T12:14:57.658Z,19.30
2019-05-30T12:17:24.037Z,19.40
2019-05-30T12:19:51.348Z,19.40
2019-05-30T12:22:17.719Z,19.50
2019-05-30T12:24:44.305Z,19.50
2019-05-30T12:27:10.534Z,19.50
2019-05-30T12:29:36.878Z,19.50
2019-05-30T12:32:03.561Z,19.60
2019-05-30T12:34:29.753Z,19.60
2019-05-30T12:36:56.390Z,19.60
2019-05-30T12:39:22.774Z,19.60
2019-05-30T12:41:49.130Z,19.60
2019-05-30T12:44:15.538Z,19.60
2019-05-30T12:46:41.784Z,19.60
2019-05-30T12:49:08.017Z,19.60
2019-05-30T12:51:34.384Z,19.50
2019-05-30T12:54:02.797Z,19.50
2019-05-30T12:56:29.112Z,19.40
2019-05-30T12:58:56.576Z,19.50
2019-05-30T13:01:22.944Z,19.50
2019-05-30T13:03:49.180Z,19.60
2019-05-30T13:06:15.421Z,19.70
2019-05-30T13:08:41.651Z,19.70
2019-05-30T13:11:07.932Z,19.70
2019-05-30T13:13:34.357Z,19.60
2019-05-30T13:16:01.828Z,19.60
2019-05-30T13:18:28.788Z,19.60
2019-05-30T13:20:55.948Z,19.50
2019-05-30T13:23:22.239Z,19.40
2019-05-30T13:25:48.461Z,19.40
2019-05-30T13:28:14.690Z,19.30
2019-05-30T13:30:40.913Z,19.30
2019-05-30T13:33:07.294Z,19.30
2019-05-30T13:35:33.526Z,19.30
2019-05-30T13:38:01.165Z,19.30
2019-05-30T13:40:27.651Z,19.40
2019-05-30T13:42:53.880Z,19.40
2019-05-30T13:45:20.300Z,19.30
2019-05-30T13:47:47.205Z,19.20
2019-05-30T13:50:16.646Z,19.20
2019-05-30T13:52:43.538Z,19.10
2019-05-30T13:55:12.470Z,19.10
2019-05-30T13:57:39.176Z,19.10
2019-05-30T14:00:10.459Z,19.10
2019-05-30T14:02:37.594Z,19.10
2019-05-30T14:05:08.192Z,19.10
2019-05-30T14:07:35.281Z,19.10
2019-05-30T14:10:04.317Z,19.10
2019-05-30T14:12:30.842Z,19.10
2019-05-30T14:14:57.579Z,19.00
2019-05-30T14:17:24.596Z,19.10
2019-05-30T14:19:51.371Z,19.10
2019-05-30T14:22:18.117Z,19.10
2019-05-30T14:24:44.735Z,19.10
2019-05-30T14:27:11.887Z,19.00
2019-05-30T14:29:38.790Z,19.00
2019-05-30T14:32:05.828Z,19.00
2019-05-30T14:34:32.754Z,19.00
2019-05-30T14:36:59.358Z,19.00
2019-05-30T14:39:26.078Z,19.00
2019-05-30T14:41:52.912Z,19.00
2019-05-30T14:44:19.791Z,19.00
2019-05-30T14:46:46.731Z,19.00
2019-05-30T14:49:13.792Z,19.00
2019-05-30T14:52:04.615Z,19.00
2019-05-30T14:54:31.209Z,19.00
2019-05-30T14:56:58.031Z,19.00
2019-05-30T14:59:24.815Z,19.00
2019-05-30T15:01:51.539Z,19.00
2019-05-30T15:04:18.570Z,19.00
2019-05-30T15:06:46.161Z,19.00
2019-05-30T15:09:22.439Z,19.00
2019-05-30T15:11:41.462Z,19.00
2019-05-30T15:14:08.733Z,19.10
2019-05-30T15:16:35.434Z,19.10
2019-05-30T15:19:02.358Z,19.10
2019-05-30T15:21:29.285Z,19.20
2019-05-30T15:23:56.055Z,19.20
2019-05-30T15:26:23.106Z,19.20
2019-05-30T15:28:49.416Z,19.20
2019-05-30T15:31:16.658Z,19.20
2019-05-30T15:33:43.023Z,19.20
2019-05-30T15:36:09.246Z,19.20
2019-05-30T15:38:35.502Z,19.10
2019-05-30T15:41:01.771Z,19.10
2019-05-30T15:43:28.010Z,19.10
2019-05-30T15:45:54.207Z,19.00
2019-05-30T15:48:20.492Z,19.00
2019-05-30T15:50:46.725Z,18.90
2019-05-30T15:53:13.156Z,18.90
2019-05-30T15:55:39.495Z,18.90
2019-05-30T15:58:05.747Z,18.90
2019-05-30T16:00:32.003Z,18.80
2019-05-30T16:02:58.232Z,18.70
2019-05-30T16:05:24.495Z,18.70
2019-05-30T16:07:50.720Z,18.60
2019-05-30T16:10:17.248Z,18.50
2019-05-30T16:12:43.502Z,18.50
2019-05-30T16:15:11.653Z,18.50
2019-05-30T16:17:38.128Z,18.40
2019-05-30T16:20:06.718Z,18.40
2019-05-30T16:22:33.132Z,18.40
2019-05-30T16:24:59.359Z,18.30
2019-05-30T16:27:26.068Z,18.30
2019-05-30T16:29:52.421Z,18.30
2019-05-30T16:32:19.171Z,18.30
2019-05-30T16:34:46.579Z,18.30
2019-05-30T16:37:14.138Z,18.30
2019-05-30T16:39:40.549Z,18.30
2019-05-30T16:42:06.730Z,18.30
2019-05-30T16:44:32.953Z,18.20
2019-05-30T16:46:59.188Z,18.20
2019-05-30T16:49:26.847Z,18.20
2019-05-30T16:51:53.129Z,18.20
2019-05-30T16:54:19.373Z,18.20
2019-05-30T16:56:45.630Z,18.10
2019-05-30T16:59:11.883Z,18.10
2019-05-30T17:01:38.484Z,18.20
2019-05-30T17:04:04.676Z,18.20
2019-05-30T17:06:30.920Z,18.10
2019-05-30T17:08:57.170Z,18.10
2019-05-30T17:11:23.590Z,18.10
2019-05-30T17:13:49.872Z,18.10
2019-05-30T17:16:16.116Z,18.10
2019-05-30T17:18:42.338Z,18.10
2019-05-30T17:21:08.581Z,18.10
2019-05-30T17:23:34.841Z,18.10
2019-05-30T17:26:01.497Z,18.00
2019-05-30T17:28:27.736Z,18.00
2019-05-30T17:30:54.014Z,17.90
2019-05-30T17:33:22.337Z,17.80
2019-05-30T17:35:48.369Z,17.80
2019-05-30T17:38:14.582Z,17.70
2019-05-30T17:40:45.022Z,17.60
2019-05-30T17:43:09.014Z,17.50
2019-05-30T17:45:35.229Z,17.40
2019-05-30T17:48:15.597Z,17.40
2019-05-30T17:50:30.585Z,17.30
2019-05-30T17:52:57.069Z,17.20
2019-05-30T17:55:23.866Z,17.10
2019-05-30T17:57:50.364Z,17.10
2019-05-30T18:00:17.104Z,17.00
2019-05-30T18:02:43.343Z,17.00
2019-05-30T18:05:10.845Z,16.90
2019-05-30T18:07:37.075Z,16.90
2019-05-30T18:10:06.132Z,16.90
2019-05-30T18:12:32.642Z,16.80
2019-05-30T18:14:59.583Z,16.70
2019-05-30T18:17:27.203Z,16.70
2019-05-30T18:19:53.493Z,16.70
2019-05-30T18:22:19.796Z,16.60
2019-05-30T18:24:46.061Z,16.60
2019-05-30T18:27:12.312Z,16.50
2019-05-30T18:29:38.532Z,16.50
2019-05-30T18:32:05.273Z,16.40
2019-05-30T18:34:32.760Z,16.30
2019-05-30T18:37:01.163Z,16.30
2019-05-30T18:39:28.616Z,16.10
2019-05-30T18:41:55.025Z,16.10
2019-05-30T18:44:22.661Z,16.00
2019-05-30T18:46:49.052Z,15.90
2019-05-30T18:49:15.589Z,15.80
2019-05-30T18:51:42.398Z,15.70
2019-05-30T18:54:08.627Z,15.60
2019-05-30T18:56:36.983Z,15.50
2019-05-30T18:59:03.461Z,15.50
2019-05-30T19:01:29.757Z,15.40
2019-05-30T19:03:55.944Z,15.30
2019-05-30T19:06:22.180Z,15.30
2019-05-30T19:08:48.462Z,15.20
2019-05-30T19:11:27.155Z,15.10
2019-05-30T19:13:42.927Z,15.10
2019-05-30T19:16:09.334Z,15.00
2019-05-30T19:18:35.820Z,14.90
2019-05-30T19:21:02.038Z,14.80
2019-05-30T19:23:28.309Z,14.80
2019-05-30T19:25:55.847Z,14.70
2019-05-30T19:28:22.394Z,14.70
2019-05-30T19:30:49.323Z,14.60
2019-05-30T19:33:20.791Z,14.50
2019-05-30T19:35:49.661Z,14.50
2019-05-30T19:42:18.017Z,14.30
2019-05-30T19:44:44.807Z,14.30
2019-05-30T19:47:12.025Z,14.20
2019-05-30T19:49:40.135Z,14.10
2019-05-30T19:52:12.186Z,14.10
2019-05-30T19:54:41.583Z,14.00
2019-05-30T19:57:08.764Z,13.90
2019-05-30T19:59:36.260Z,13.90
2019-05-30T20:02:03.159Z,13.80
2019-05-30T20:04:30.190Z,13.80
2019-05-30T20:06:57.157Z,13.70
2019-05-30T20:09:24.074Z,13.60
2019-05-30T20:12:02.601Z,13.60
2019-05-30T20:14:19.063Z,13.50
2019-05-30T20:16:45.316Z,13.40
2019-05-30T20:19:11.782Z,13.40
2019-05-30T20:21:38.162Z,13.30
2019-05-30T20:24:04.647Z,13.30
2019-05-30T20:26:32.398Z,13.20
2019-05-30T20:28:58.770Z,13.20
2019-05-30T20:31:25.027Z,13.20
2019-05-30T20:33:51.328Z,13.10
2019-05-30T20:36:17.588Z,13.10
2019-05-30T20:38:44.194Z,13.00
2019-05-30T20:41:10.740Z,13.00
2019-05-30T20:43:37.037Z,13.00
2019-05-30T20:46:03.434Z,13.00
2019-05-30T20:48:29.678Z,13.00
2019-05-30T20:50:55.911Z,13.00
2019-05-30T20:53:22.135Z,13.00
2019-05-30T20:55:48.417Z,13.00
2019-05-30T20:58:14.929Z,13.00
2019-05-30T21:00:42.224Z,13.00
2019-05-30T21:03:08.976Z,12.90
2019-05-30T21:05:35.690Z,12.90
2019-05-30T21:08:05.667Z,12.90
2019-05-30T21:10:32.993Z,12.90
2019-05-30T21:13:00.296Z,12.90
2019-05-30T21:15:27.738Z,12.80
2019-05-30T21:17:57.805Z,12.80
2019-05-30T21:20:24.028Z,12.80
2019-05-30T21:22:50.537Z,12.70
2019-05-30T21:25:17.080Z,12.70
2019-05-30T21:27:43.303Z,12.60
2019-05-30T21:30:11.115Z,12.60
2019-05-30T21:32:37.775Z,12.50
2019-05-30T21:35:06.387Z,12.50
2019-05-30T21:37:32.739Z,12.50
2019-05-30T21:39:58.955Z,12.40
2019-05-30T21:42:25.312Z,12.40
2019-05-30T21:44:52.947Z,12.30
2019-05-30T21:47:19.527Z,12.30
2019-05-30T21:49:47.014Z,12.20
2019-05-30T21:52:13.371Z,12.20
2019-05-30T21:54:39.819Z,12.10
2019-05-30T21:57:06.053Z,12.10
2019-05-30T21:59:32.282Z,12.00
2019-05-30T22:01:58.520Z,12.00
2019-05-30T22:04:24.801Z,12.00
2019-05-30T22:06:51.136Z,11.90
2019-05-30T22:09:17.301Z,11.90
2019-05-30T22:11:43.749Z,11.90
2019-05-30T22:14:09.994Z,11.80
2019-05-30T22:16:36.322Z,11.80
2019-05-30T22:19:03.387Z,11.70
2019-05-30T22:21:29.623Z,11.70
2019-05-30T22:23:55.867Z,11.70
2019-05-30T22:26:22.106Z,11.60
2019-05-30T22:28:48.456Z,11.60
2019-05-30T22:31:14.733Z,11.60
2019-05-30T22:33:40.943Z,11.50
2019-05-30T22:36:07.195Z,11.50
2019-05-30T22:38:33.476Z,11.50
2019-05-30T22:40:59.715Z,11.50
2019-05-30T22:43:26.058Z,11.40
2019-05-30T22:45:52.558Z,11.40
2019-05-30T22:48:18.753Z,11.40
2019-05-30T22:50:44.969Z,11.40
2019-05-30T22:53:11.193Z,11.40
2019-05-30T22:55:37.457Z,11.30
2019-05-30T22:58:03.678Z,11.30
2019-05-30T23:00:30.022Z,11.30
2019-05-30T23:02:56.238Z,11.30
2019-05-30T23:05:22.490Z,11.30
2019-05-30T23:07:49.393Z,11.30
2019-05-30T23:10:16.039Z,11.30
2019-05-30T23:12:44.035Z,11.30
2019-05-30T23:15:10.742Z,11.30
2019-05-30T23:17:36.986Z,11.30
2019-05-30T23:20:06.113Z,11.30
2019-05-30T23:22:32.360Z,11.30
2019-05-30T23:24:58.576Z,11.40
2019-05-30T23:27:24.826Z,11.40
2019-05-30T23:29:51.750Z,11.40
2019-05-30T23:32:18.070Z,11.40
2019-05-30T23:34:44.288Z,11.40
2019-05-30T23:37:19.013Z,11.40
2019-05-30T23:39:45.233Z,11.40
2019-05-30T23:42:11.476Z,11.50
2019-05-30T23:44:37.694Z,11.50
2019-05-30T23:47:03.971Z,11.50
2019-05-30T23:49:30.209Z,11.50
2019-05-30T23:51:56.438Z,11.50
2019-05-30T23:54:22.829Z,11.60
2019-05-30T23:56:50.417Z,11.60
2019-05-30T23:59:16.894Z,11.60
